sensor_id;sensor_type;location;lat;lon;timestamp;temperature;humidity
11656;DHT22;5884;43.618;1.438;2022-10-18T04:47:53;19.30;99.90
11656;DHT22;5884;43.618;1.438;2022-10-18T04:50:20;19.30;99.90
11656;DHT22;5884;43.618;1.438;2022-10-18T04:52:48;19.40;99.90
11656;DHT22;5884;43.618;1.438;2022-10-18T04:55:15;19.30;99.90
11656;DHT22;5884;43.618;1.438;2022-10-18T04:57:42;19.30;99.90
11656;DHT22;5884;43.618;1.438;2022-10-18T05:00:10;19.40;99.90
11656;DHT22;5884;43.618;1.438;2022-10-18T05:02:38;19.40;99.90
11656;DHT22;5884;43.618;1.438;2022-10-18T05:05:07;19.50;99.90
11656;DHT22;5884;43.618;1.438;2022-10-18T05:07:35;19.40;99.90
11656;DHT22;5884;43.618;1.438;2022-10-18T05:10:03;19.40;99.90
11656;DHT22;5884;43.618;1.438;2022-10-18T05:12:30;19.40;99.90
11656;DHT22;5884;43.618;1.438;2022-10-18T05:14:58;19.30;99.90
11656;DHT22;5884;43.618;1.438;2022-10-18T05:17:25;19.30;99.90
11656;DHT22;5884;43.618;1.438;2022-10-18T05:19:52;19.30;99.90
11656;DHT22;5884;43.618;1.438;2022-10-18T05:22:21;19.30;99.90
11656;DHT22;5884;43.618;1.438;2022-10-18T05:24:48;19.30;99.90
11656;DHT22;5884;43.618;1.438;2022-10-18T05:27:15;19.30;99.90
11656;DHT22;5884;43.618;1.438;2022-10-18T05:29:43;19.30;99.90
11656;DHT22;5884;43.618;1.438;2022-10-18T05:32:10;19.30;99.90
11656;DHT22;5884;43.618;1.438;2022-10-18T05:34:38;19.30;99.90
11656;DHT22;5884;43.618;1.438;2022-10-18T05:37:05;19.30;99.90
11656;DHT22;5884;43.618;1.438;2022-10-18T05:39:33;19.30;99.90
11656;DHT22;5884;43.618;1.438;2022-10-18T05:42:01;19.20;99.90
11656;DHT22;5884;43.618;1.438;2022-10-18T05:44:28;19.20;99.90
11656;DHT22;5884;43.618;1.438;2022-10-18T05:46:55;19.20;99.90
11656;DHT22;5884;43.618;1.438;2022-10-18T05:49:23;19.30;99.90
11656;DHT22;5884;43.618;1.438;2022-10-18T05:51:50;19.20;99.90
11656;DHT22;5884;43.618;1.438;2022-10-18T05:54:17;19.30;99.90
11656;DHT22;5884;43.618;1.438;2022-10-18T05:56:46;19.20;99.90
11656;DHT22;5884;43.618;1.438;2022-10-18T05:59:14;19.20;99.90
11656;DHT22;5884;43.618;1.438;2022-10-18T06:01:42;19.20;99.90
11656;DHT22;5884;43.618;1.438;2022-10-18T06:04:10;19.20;99.90
11656;DHT22;5884;43.618;1.438;2022-10-18T06:06:38;19.20;99.90
11656;DHT22;5884;43.618;1.438;2022-10-18T06:09:06;19.20;99.90
11656;DHT22;5884;43.618;1.438;2022-10-18T06:11:34;19.10;99.90
11656;DHT22;5884;43.618;1.438;2022-10-18T06:14:04;19.10;99.90
11656;DHT22;5884;43.618;1.438;2022-10-18T06:16:33;19.20;99.90
11656;DHT22;5884;43.618;1.438;2022-10-18T06:19:00;19.20;99.90
11656;DHT22;5884;43.618;1.438;2022-10-18T06:21:28;19.20;99.90
11656;DHT22;5884;43.618;1.438;2022-10-18T06:23:56;19.20;99.90
11656;DHT22;5884;43.618;1.438;2022-10-18T06:26:25;19.20;99.90
11656;DHT22;5884;43.618;1.438;2022-10-18T06:28:53;19.20;99.90
11656;DHT22;5884;43.618;1.438;2022-10-18T06:31:22;19.20;99.90
11656;DHT22;5884;43.618;1.438;2022-10-18T06:33:49;19.30;99.90
11656;DHT22;5884;43.618;1.438;2022-10-18T06:36:18;19.30;99.90
11656;DHT22;5884;43.618;1.438;2022-10-18T06:38:47;19.30;99.90
11656;DHT22;5884;43.618;1.438;2022-10-18T06:41:15;19.40;99.90
11656;DHT22;5884;43.618;1.438;2022-10-18T06:43:42;19.30;99.90
11656;DHT22;5884;43.618;1.438;2022-10-18T06:46:09;19.40;99.90
11656;DHT22;5884;43.618;1.438;2022-10-18T06:48:38;19.40;99.90
11656;DHT22;5884;43.618;1.438;2022-10-18T06:51:06;19.40;99.90
11656;DHT22;5884;43.618;1.438;2022-10-18T06:53:35;19.40;99.90
11656;DHT22;5884;43.618;1.438;2022-10-18T06:56:05;19.40;99.90
11656;DHT22;5884;43.618;1.438;2022-10-18T06:58:33;19.50;99.90
11656;DHT22;5884;43.618;1.438;2022-10-18T07:01:05;19.50;99.90
11656;DHT22;5884;43.618;1.438;2022-10-18T07:03:32;19.50;99.90
11656;DHT22;5884;43.618;1.438;2022-10-18T07:06:02;19.50;99.90
11656;DHT22;5884;43.618;1.438;2022-10-18T07:08:30;19.50;99.90
11656;DHT22;5884;43.618;1.438;2022-10-18T07:10:58;19.50;99.90
11656;DHT22;5884;43.618;1.438;2022-10-18T07:13:27;19.60;99.90
11656;DHT22;5884;43.618;1.438;2022-10-18T07:16:00;19.60;99.90
11656;DHT22;5884;43.618;1.438;2022-10-18T07:18:29;19.60;99.90
11656;DHT22;5884;43.618;1.438;2022-10-18T07:20:56;19.60;99.90
11656;DHT22;5884;43.618;1.438;2022-10-18T07:23:30;19.70;99.90
11656;DHT22;5884;43.618;1.438;2022-10-18T07:25:58;19.70;99.90
11656;DHT22;5884;43.618;1.438;2022-10-18T07:28:26;19.70;99.90
11656;DHT22;5884;43.618;1.438;2022-10-18T07:30:54;19.80;99.90
11656;DHT22;5884;43.618;1.438;2022-10-18T07:33:21;19.80;99.90
11656;DHT22;5884;43.618;1.438;2022-10-18T07:35:50;19.90;99.90
11656;DHT22;5884;43.618;1.438;2022-10-18T07:38:19;19.90;99.90
11656;DHT22;5884;43.618;1.438;2022-10-18T07:40:47;20.00;99.90
11656;DHT22;5884;43.618;1.438;2022-10-18T07:43:14;20.00;99.90
11656;DHT22;5884;43.618;1.438;2022-10-18T07:45:50;20.00;99.90
11656;DHT22;5884;43.618;1.438;2022-10-18T07:48:18;20.10;99.90
11656;DHT22;5884;43.618;1.438;2022-10-18T07:50:45;20.10;99.90
11656;DHT22;5884;43.618;1.438;2022-10-18T07:53:13;20.20;99.90
11656;DHT22;5884;43.618;1.438;2022-10-18T07:55:42;20.20;99.90
11656;DHT22;5884;43.618;1.438;2022-10-18T07:58:10;20.20;99.90
11656;DHT22;5884;43.618;1.438;2022-10-18T08:00:38;20.30;99.90
11656;DHT22;5884;43.618;1.438;2022-10-18T08:03:06;20.40;99.90
11656;DHT22;5884;43.618;1.438;2022-10-18T08:05:33;20.40;99.90
11656;DHT22;5884;43.618;1.438;2022-10-18T08:08:00;20.50;99.90
11656;DHT22;5884;43.618;1.438;2022-10-18T08:10:27;20.50;99.90
11656;DHT22;5884;43.618;1.438;2022-10-18T08:12:56;20.50;99.90
11656;DHT22;5884;43.618;1.438;2022-10-18T08:15:23;20.60;99.90
11656;DHT22;5884;43.618;1.438;2022-10-18T08:17:51;20.70;99.90
11656;DHT22;5884;43.618;1.438;2022-10-18T08:20:18;20.70;99.90
11656;DHT22;5884;43.618;1.438;2022-10-18T08:22:49;20.70;99.90
11656;DHT22;5884;43.618;1.438;2022-10-18T08:25:16;20.80;99.90
11656;DHT22;5884;43.618;1.438;2022-10-18T08:27:44;20.80;99.90
11656;DHT22;5884;43.618;1.438;2022-10-18T08:30:12;20.90;99.90
11656;DHT22;5884;43.618;1.438;2022-10-18T08:32:40;20.90;99.90
11656;DHT22;5884;43.618;1.438;2022-10-18T08:35:07;21.00;99.90
11656;DHT22;5884;43.618;1.438;2022-10-18T08:37:35;21.00;99.90
11656;DHT22;5884;43.618;1.438;2022-10-18T08:40:02;21.10;99.90
11656;DHT22;5884;43.618;1.438;2022-10-18T08:42:48;21.20;99.90
11656;DHT22;5884;43.618;1.438;2022-10-18T08:45:24;21.20;99.90
11656;DHT22;5884;43.618;1.438;2022-10-18T08:47:53;21.30;99.90
11656;DHT22;5884;43.618;1.438;2022-10-18T08:50:25;21.40;99.90
11656;DHT22;5884;43.618;1.438;2022-10-18T08:52:57;21.40;99.90
11656;DHT22;5884;43.618;1.438;2022-10-18T08:55:31;21.60;99.90
11656;DHT22;5884;43.618;1.438;2022-10-18T08:58:14;21.60;99.90
11656;DHT22;5884;43.618;1.438;2022-10-18T09:00:52;21.60;99.90
11656;DHT22;5884;43.618;1.438;2022-10-18T09:03:46;21.70;99.90
11656;DHT22;5884;43.618;1.438;2022-10-18T09:06:27;21.70;99.90
11656;DHT22;5884;43.618;1.438;2022-10-18T09:09:05;21.80;99.90
11656;DHT22;5884;43.618;1.438;2022-10-18T09:11:46;21.80;99.90
11656;DHT22;5884;43.618;1.438;2022-10-18T09:17:34;21.90;99.90
11656;DHT22;5884;43.618;1.438;2022-10-18T09:20:18;21.90;99.90
11656;DHT22;5884;43.618;1.438;2022-10-18T09:22:52;22.00;99.90
11656;DHT22;5884;43.618;1.438;2022-10-18T09:25:23;22.10;99.90
11656;DHT22;5884;43.618;1.438;2022-10-18T09:27:54;22.20;99.90
11656;DHT22;5884;43.618;1.438;2022-10-18T09:30:37;22.20;99.90
11656;DHT22;5884;43.618;1.438;2022-10-18T09:36:04;22.30;99.90
11656;DHT22;5884;43.618;1.438;2022-10-18T09:38:44;22.40;99.90
11656;DHT22;5884;43.618;1.438;2022-10-18T09:41:17;22.40;99.90
11656;DHT22;5884;43.618;1.438;2022-10-18T09:43:53;22.50;99.90
11656;DHT22;5884;43.618;1.438;2022-10-18T09:46:25;22.50;99.90
11656;DHT22;5884;43.618;1.438;2022-10-18T09:48:57;22.60;99.90
11656;DHT22;5884;43.618;1.438;2022-10-18T09:51:30;22.70;99.90
11656;DHT22;5884;43.618;1.438;2022-10-18T09:54:13;22.80;99.90
11656;DHT22;5884;43.618;1.438;2022-10-18T09:56:47;22.80;99.90
11656;DHT22;5884;43.618;1.438;2022-10-18T09:59:33;22.80;99.90
11656;DHT22;5884;43.618;1.438;2022-10-18T10:02:02;22.90;99.90
11656;DHT22;5884;43.618;1.438;2022-10-18T10:04:31;23.00;99.90
11656;DHT22;5884;43.618;1.438;2022-10-18T10:07:00;23.00;99.90
11656;DHT22;5884;43.618;1.438;2022-10-18T10:09:29;23.10;99.90
11656;DHT22;5884;43.618;1.438;2022-10-18T10:11:57;23.20;99.90
11656;DHT22;5884;43.618;1.438;2022-10-18T10:14:25;23.20;99.90
11656;DHT22;5884;43.618;1.438;2022-10-18T10:16:56;23.20;99.90
11656;DHT22;5884;43.618;1.438;2022-10-18T10:19:31;23.30;99.90
11656;DHT22;5884;43.618;1.438;2022-10-18T10:22:02;23.30;99.90
11656;DHT22;5884;43.618;1.438;2022-10-18T10:24:47;23.30;99.90
11656;DHT22;5884;43.618;1.438;2022-10-18T10:27:19;23.30;99.90
11656;DHT22;5884;43.618;1.438;2022-10-18T10:29:57;23.40;99.90
11656;DHT22;5884;43.618;1.438;2022-10-18T10:32:29;23.40;99.90
11656;DHT22;5884;43.618;1.438;2022-10-18T10:34:58;23.50;99.90
11656;DHT22;5884;43.618;1.438;2022-10-18T10:37:31;23.50;99.90
11656;DHT22;5884;43.618;1.438;2022-10-18T10:40:14;23.60;99.90
11656;DHT22;5884;43.618;1.438;2022-10-18T10:43:06;23.70;99.90
11656;DHT22;5884;43.618;1.438;2022-10-18T10:45:55;23.70;99.90
11656;DHT22;5884;43.618;1.438;2022-10-18T10:48:25;23.80;99.90
11656;DHT22;5884;43.618;1.438;2022-10-18T10:50:59;23.90;99.90
11656;DHT22;5884;43.618;1.438;2022-10-18T10:53:31;23.90;99.90
11656;DHT22;5884;43.618;1.438;2022-10-18T10:56:17;23.90;99.90
11656;DHT22;5884;43.618;1.438;2022-10-18T10:58:48;24.00;99.90
11656;DHT22;5884;43.618;1.438;2022-10-18T11:01:22;23.90;99.90
11656;DHT22;5884;43.618;1.438;2022-10-18T11:03:53;23.90;99.90
11656;DHT22;5884;43.618;1.438;2022-10-18T11:06:39;24.10;99.90
11656;DHT22;5884;43.618;1.438;2022-10-18T11:09:25;24.00;99.90
11656;DHT22;5884;43.618;1.438;2022-10-18T11:12:03;24.10;99.90
11656;DHT22;5884;43.618;1.438;2022-10-18T11:14:40;24.20;99.90
11656;DHT22;5884;43.618;1.438;2022-10-18T11:17:16;24.10;99.90
11656;DHT22;5884;43.618;1.438;2022-10-18T11:20:12;24.10;99.90
11656;DHT22;5884;43.618;1.438;2022-10-18T11:22:58;24.20;99.90
11656;DHT22;5884;43.618;1.438;2022-10-18T11:25:53;24.30;99.90
11656;DHT22;5884;43.618;1.438;2022-10-18T11:28:33;24.30;99.90
11656;DHT22;5884;43.618;1.438;2022-10-18T11:31:15;24.30;99.90
11656;DHT22;5884;43.618;1.438;2022-10-18T11:33:57;24.40;99.90
11656;DHT22;5884;43.618;1.438;2022-10-18T11:36:35;24.40;99.90
11656;DHT22;5884;43.618;1.438;2022-10-18T11:39:13;24.60;99.90
11656;DHT22;5884;43.618;1.438;2022-10-18T11:41:49;24.70;99.90
11656;DHT22;5884;43.618;1.438;2022-10-18T11:44:25;24.70;99.90
11656;DHT22;5884;43.618;1.438;2022-10-18T11:47:03;24.70;99.90
11656;DHT22;5884;43.618;1.438;2022-10-18T11:49:55;24.70;99.90
11656;DHT22;5884;43.618;1.438;2022-10-18T11:52:34;24.70;99.90
11656;DHT22;5884;43.618;1.438;2022-10-18T11:55:29;24.70;99.90
11656;DHT22;5884;43.618;1.438;2022-10-18T11:58:07;24.70;99.90
11656;DHT22;5884;43.618;1.438;2022-10-18T12:00:46;24.70;99.90
11656;DHT22;5884;43.618;1.438;2022-10-18T12:03:26;24.80;99.90
11656;DHT22;5884;43.618;1.438;2022-10-18T12:06:03;24.90;99.90
11656;DHT22;5884;43.618;1.438;2022-10-18T12:08:36;25.00;99.90
11656;DHT22;5884;43.618;1.438;2022-10-18T12:11:11;25.10;99.90
11656;DHT22;5884;43.618;1.438;2022-10-18T12:13:45;25.00;99.90
11656;DHT22;5884;43.618;1.438;2022-10-18T12:16:14;25.10;99.90
11656;DHT22;5884;43.618;1.438;2022-10-18T12:18:51;25.10;99.90
11656;DHT22;5884;43.618;1.438;2022-10-18T12:21:21;25.10;99.90
11656;DHT22;5884;43.618;1.438;2022-10-18T12:23:52;25.10;99.90
11656;DHT22;5884;43.618;1.438;2022-10-18T12:26:24;25.10;99.90
11656;DHT22;5884;43.618;1.438;2022-10-18T12:29:02;25.10;99.90
11656;DHT22;5884;43.618;1.438;2022-10-18T12:31:41;25.10;99.90
11656;DHT22;5884;43.618;1.438;2022-10-18T12:34:27;25.20;99.90
11656;DHT22;5884;43.618;1.438;2022-10-18T12:37:27;25.20;99.90
11656;DHT22;5884;43.618;1.438;2022-10-18T12:40:02;25.10;99.90
11656;DHT22;5884;43.618;1.438;2022-10-18T12:42:33;25.10;99.90
11656;DHT22;5884;43.618;1.438;2022-10-18T12:45:24;25.20;99.90
11656;DHT22;5884;43.618;1.438;2022-10-18T12:47:54;25.10;99.90
11656;DHT22;5884;43.618;1.438;2022-10-18T12:50:29;25.20;99.90
11656;DHT22;5884;43.618;1.438;2022-10-18T12:53:06;25.20;99.90
11656;DHT22;5884;43.618;1.438;2022-10-18T12:55:46;25.30;99.90
11656;DHT22;5884;43.618;1.438;2022-10-18T12:58:28;25.40;99.90
11656;DHT22;5884;43.618;1.438;2022-10-18T13:03:50;25.40;99.90
11656;DHT22;5884;43.618;1.438;2022-10-18T13:06:20;25.50;99.90
11656;DHT22;5884;43.618;1.438;2022-10-18T13:09:14;25.40;99.90
11656;DHT22;5884;43.618;1.438;2022-10-18T13:11:42;25.40;99.90
11656;DHT22;5884;43.618;1.438;2022-10-18T13:14:55;25.40;99.90
11656;DHT22;5884;43.618;1.438;2022-10-18T13:17:30;25.50;99.90
11656;DHT22;5884;43.618;1.438;2022-10-18T13:20:14;25.30;99.90
11656;DHT22;5884;43.618;1.438;2022-10-18T13:22:59;25.30;99.90
11656;DHT22;5884;43.618;1.438;2022-10-18T13:25:38;25.30;99.90
11656;DHT22;5884;43.618;1.438;2022-10-18T13:28:22;25.30;99.90
11656;DHT22;5884;43.618;1.438;2022-10-18T13:30:59;25.30;99.90
11656;DHT22;5884;43.618;1.438;2022-10-18T13:33:31;25.50;99.90
11656;DHT22;5884;43.618;1.438;2022-10-18T13:36:01;25.40;99.90
11656;DHT22;5884;43.618;1.438;2022-10-18T13:38:41;25.50;99.90
11656;DHT22;5884;43.618;1.438;2022-10-18T13:41:15;25.50;99.90
11656;DHT22;5884;43.618;1.438;2022-10-18T13:43:58;25.50;99.90
11656;DHT22;5884;43.618;1.438;2022-10-18T13:47:08;25.40;99.90
11656;DHT22;5884;43.618;1.438;2022-10-18T13:49:52;25.50;99.90
11656;DHT22;5884;43.618;1.438;2022-10-18T13:53:01;25.60;99.90
11656;DHT22;5884;43.618;1.438;2022-10-18T13:55:52;25.50;99.90
11656;DHT22;5884;43.618;1.438;2022-10-18T13:58:29;25.40;99.90
11656;DHT22;5884;43.618;1.438;2022-10-18T14:01:11;25.50;99.90
11656;DHT22;5884;43.618;1.438;2022-10-18T14:04:15;25.40;99.90
11656;DHT22;5884;43.618;1.438;2022-10-18T14:06:59;25.40;99.90
11656;DHT22;5884;43.618;1.438;2022-10-18T14:09:32;25.40;99.90
11656;DHT22;5884;43.618;1.438;2022-10-18T14:12:07;25.40;99.90
11656;DHT22;5884;43.618;1.438;2022-10-18T14:14:42;25.40;99.90
11656;DHT22;5884;43.618;1.438;2022-10-18T14:17:21;25.50;99.90
11656;DHT22;5884;43.618;1.438;2022-10-18T14:19:59;25.50;99.90
11656;DHT22;5884;43.618;1.438;2022-10-18T14:22:35;25.50;99.90
11656;DHT22;5884;43.618;1.438;2022-10-18T14:25:18;25.40;99.90
11656;DHT22;5884;43.618;1.438;2022-10-18T14:27:47;25.40;99.90
11656;DHT22;5884;43.618;1.438;2022-10-18T14:30:16;25.40;99.90
11656;DHT22;5884;43.618;1.438;2022-10-18T14:32:45;25.40;99.90
11656;DHT22;5884;43.618;1.438;2022-10-18T14:35:19;25.40;99.90
11656;DHT22;5884;43.618;1.438;2022-10-18T14:37:50;25.30;99.90
11656;DHT22;5884;43.618;1.438;2022-10-18T14:40:26;25.20;99.90
11656;DHT22;5884;43.618;1.438;2022-10-18T14:43:02;25.30;99.90
11656;DHT22;5884;43.618;1.438;2022-10-18T14:45:31;25.20;99.90
11656;DHT22;5884;43.618;1.438;2022-10-18T14:48:06;25.30;99.90
11656;DHT22;5884;43.618;1.438;2022-10-18T14:50:35;25.10;99.90
11656;DHT22;5884;43.618;1.438;2022-10-18T14:53:06;25.00;99.90
11656;DHT22;5884;43.618;1.438;2022-10-18T14:55:37;25.00;99.90
11656;DHT22;5884;43.618;1.438;2022-10-18T14:58:13;25.00;99.90
11656;DHT22;5884;43.618;1.438;2022-10-18T15:00:41;24.90;99.90
11656;DHT22;5884;43.618;1.438;2022-10-18T15:03:13;24.90;99.90
11656;DHT22;5884;43.618;1.438;2022-10-18T15:05:53;24.90;99.90
11656;DHT22;5884;43.618;1.438;2022-10-18T15:08:24;24.90;99.90
11656;DHT22;5884;43.618;1.438;2022-10-18T15:10:53;24.90;99.90
11656;DHT22;5884;43.618;1.438;2022-10-18T15:13:20;24.80;99.90
11656;DHT22;5884;43.618;1.438;2022-10-18T15:15:49;24.70;99.90
11656;DHT22;5884;43.618;1.438;2022-10-18T15:18:20;24.70;99.90
11656;DHT22;5884;43.618;1.438;2022-10-18T15:21:09;24.60;99.90
11656;DHT22;5884;43.618;1.438;2022-10-18T15:23:46;24.60;99.90
11656;DHT22;5884;43.618;1.438;2022-10-18T15:26:18;24.60;99.90
11656;DHT22;5884;43.618;1.438;2022-10-18T15:28:48;24.50;99.90
11656;DHT22;5884;43.618;1.438;2022-10-18T15:31:28;24.40;99.90
11656;DHT22;5884;43.618;1.438;2022-10-18T15:34:08;24.40;99.90
11656;DHT22;5884;43.618;1.438;2022-10-18T15:36:38;24.30;99.90
11656;DHT22;5884;43.618;1.438;2022-10-18T15:39:07;24.30;99.90
11656;DHT22;5884;43.618;1.438;2022-10-18T15:41:46;24.20;99.90
11656;DHT22;5884;43.618;1.438;2022-10-18T15:44:22;24.20;99.90
11656;DHT22;5884;43.618;1.438;2022-10-18T15:46:54;24.10;99.90
11656;DHT22;5884;43.618;1.438;2022-10-18T15:49:54;24.00;99.90
11656;DHT22;5884;43.618;1.438;2022-10-18T15:52:41;24.00;99.90
11656;DHT22;5884;43.618;1.438;2022-10-18T15:55:41;23.90;99.90
11656;DHT22;5884;43.618;1.438;2022-10-18T15:58:16;23.90;99.90
11656;DHT22;5884;43.618;1.438;2022-10-18T16:00:45;23.80;99.90
11656;DHT22;5884;43.618;1.438;2022-10-18T16:03:14;23.80;99.90
11656;DHT22;5884;43.618;1.438;2022-10-18T16:05:43;23.70;99.90
11656;DHT22;5884;43.618;1.438;2022-10-18T16:08:21;23.60;99.90
11656;DHT22;5884;43.618;1.438;2022-10-18T16:10:50;23.40;99.90
11656;DHT22;5884;43.618;1.438;2022-10-18T16:13:18;23.30;99.90
11656;DHT22;5884;43.618;1.438;2022-10-18T16:15:45;23.30;99.90
11656;DHT22;5884;43.618;1.438;2022-10-18T16:18:15;23.20;99.90
11656;DHT22;5884;43.618;1.438;2022-10-18T16:20:43;23.10;99.90
11656;DHT22;5884;43.618;1.438;2022-10-18T16:23:21;23.00;99.90
11656;DHT22;5884;43.618;1.438;2022-10-18T16:25:49;22.90;99.90
11656;DHT22;5884;43.618;1.438;2022-10-18T16:28:20;22.80;99.90
11656;DHT22;5884;43.618;1.438;2022-10-18T16:30:53;22.80;99.90
11656;DHT22;5884;43.618;1.438;2022-10-18T16:33:22;22.70;99.90
11656;DHT22;5884;43.618;1.438;2022-10-18T16:35:50;22.70;99.90
11656;DHT22;5884;43.618;1.438;2022-10-18T16:38:25;22.60;99.90
11656;DHT22;5884;43.618;1.438;2022-10-18T16:40:54;22.50;99.90
11656;DHT22;5884;43.618;1.438;2022-10-18T16:43:21;22.50;99.90
11656;DHT22;5884;43.618;1.438;2022-10-18T16:45:50;22.40;99.90
11656;DHT22;5884;43.618;1.438;2022-10-18T16:48:22;22.30;99.90
11656;DHT22;5884;43.618;1.438;2022-10-18T16:50:51;22.30;99.90
11656;DHT22;5884;43.618;1.438;2022-10-18T16:53:19;22.20;99.90
11656;DHT22;5884;43.618;1.438;2022-10-18T16:55:52;22.20;99.90
11656;DHT22;5884;43.618;1.438;2022-10-18T16:58:21;22.10;99.90
11656;DHT22;5884;43.618;1.438;2022-10-18T17:00:48;22.10;99.90
11656;DHT22;5884;43.618;1.438;2022-10-18T17:03:16;22.00;99.90
11656;DHT22;5884;43.618;1.438;2022-10-18T17:05:45;22.00;99.90
11656;DHT22;5884;43.618;1.438;2022-10-18T17:08:17;21.90;99.90
11656;DHT22;5884;43.618;1.438;2022-10-18T17:10:46;21.90;99.90
11656;DHT22;5884;43.618;1.438;2022-10-18T17:13:16;21.90;99.90
11656;DHT22;5884;43.618;1.438;2022-10-18T17:15:44;21.80;99.90
11656;DHT22;5884;43.618;1.438;2022-10-18T17:18:12;21.80;99.90
11656;DHT22;5884;43.618;1.438;2022-10-18T17:20:41;21.80;99.90
11656;DHT22;5884;43.618;1.438;2022-10-18T17:23:09;21.70;99.90
11656;DHT22;5884;43.618;1.438;2022-10-18T17:25:38;21.70;99.90
11656;DHT22;5884;43.618;1.438;2022-10-18T17:28:11;21.60;99.90
11656;DHT22;5884;43.618;1.438;2022-10-18T17:30:42;21.60;99.90
11656;DHT22;5884;43.618;1.438;2022-10-18T17:33:11;21.50;99.90
11656;DHT22;5884;43.618;1.438;2022-10-18T17:35:39;21.50;99.90
11656;DHT22;5884;43.618;1.438;2022-10-18T17:38:07;21.40;99.90
11656;DHT22;5884;43.618;1.438;2022-10-18T17:40:38;21.50;99.90
11656;DHT22;5884;43.618;1.438;2022-10-18T17:43:06;21.50;99.90
11656;DHT22;5884;43.618;1.438;2022-10-18T17:45:33;21.40;99.90
11656;DHT22;5884;43.618;1.438;2022-10-18T17:48:02;21.40;99.90
11656;DHT22;5884;43.618;1.438;2022-10-18T17:50:30;21.40;99.90
11656;DHT22;5884;43.618;1.438;2022-10-18T17:52:57;21.30;99.90
11656;DHT22;5884;43.618;1.438;2022-10-18T17:55:24;21.30;99.90
11656;DHT22;5884;43.618;1.438;2022-10-18T17:57:52;21.30;99.90
11656;DHT22;5884;43.618;1.438;2022-10-18T18:00:19;21.20;99.90
11656;DHT22;5884;43.618;1.438;2022-10-18T18:02:49;21.30;99.90
11656;DHT22;5884;43.618;1.438;2022-10-18T18:05:17;21.20;99.90
11656;DHT22;5884;43.618;1.438;2022-10-18T18:07:45;21.20;99.90
11656;DHT22;5884;43.618;1.438;2022-10-18T18:10:12;21.10;99.90
11656;DHT22;5884;43.618;1.438;2022-10-18T18:12:39;21.10;99.90
11656;DHT22;5884;43.618;1.438;2022-10-18T18:15:10;21.10;99.90
11656;DHT22;5884;43.618;1.438;2022-10-18T18:17:37;21.00;99.90
11656;DHT22;5884;43.618;1.438;2022-10-18T18:20:05;21.00;99.90
11656;DHT22;5884;43.618;1.438;2022-10-18T18:22:38;21.00;99.90
11656;DHT22;5884;43.618;1.438;2022-10-18T18:25:08;21.00;99.90
11656;DHT22;5884;43.618;1.438;2022-10-18T18:27:35;20.90;99.90
11656;DHT22;5884;43.618;1.438;2022-10-18T18:30:04;20.90;99.90
11656;DHT22;5884;43.618;1.438;2022-10-18T18:32:32;20.80;99.90
11656;DHT22;5884;43.618;1.438;2022-10-18T18:35:00;20.80;99.90
11656;DHT22;5884;43.618;1.438;2022-10-18T18:37:27;20.80;99.90
11656;DHT22;5884;43.618;1.438;2022-10-18T18:39:56;20.80;99.90
11656;DHT22;5884;43.618;1.438;2022-10-18T18:42:23;20.80;99.90
11656;DHT22;5884;43.618;1.438;2022-10-18T18:44:50;20.80;99.90
11656;DHT22;5884;43.618;1.438;2022-10-18T18:47:18;20.70;99.90
11656;DHT22;5884;43.618;1.438;2022-10-18T18:49:47;20.70;99.90
11656;DHT22;5884;43.618;1.438;2022-10-18T18:52:16;20.70;99.90
11656;DHT22;5884;43.618;1.438;2022-10-18T18:54:43;20.70;99.90
11656;DHT22;5884;43.618;1.438;2022-10-18T18:57:12;20.60;99.90
11656;DHT22;5884;43.618;1.438;2022-10-18T18:59:39;20.60;99.90
11656;DHT22;5884;43.618;1.438;2022-10-18T19:02:08;20.60;99.90
11656;DHT22;5884;43.618;1.438;2022-10-18T19:04:36;20.60;99.90
11656;DHT22;5884;43.618;1.438;2022-10-18T19:07:03;20.60;99.90
11656;DHT22;5884;43.618;1.438;2022-10-18T19:09:31;20.60;99.90
11656;DHT22;5884;43.618;1.438;2022-10-18T19:12:02;20.60;99.90
11656;DHT22;5884;43.618;1.438;2022-10-18T19:14:32;20.50;99.90
11656;DHT22;5884;43.618;1.438;2022-10-18T19:17:00;20.50;99.90
11656;DHT22;5884;43.618;1.438;2022-10-18T19:19:31;20.50;99.90
11656;DHT22;5884;43.618;1.438;2022-10-18T19:21:59;20.50;99.90
11656;DHT22;5884;43.618;1.438;2022-10-18T19:24:30;20.50;99.90
11656;DHT22;5884;43.618;1.438;2022-10-18T19:26:58;20.50;99.90
11656;DHT22;5884;43.618;1.438;2022-10-18T19:29:28;20.40;99.90
11656;DHT22;5884;43.618;1.438;2022-10-18T19:31:59;20.40;99.90
11656;DHT22;5884;43.618;1.438;2022-10-18T19:34:30;20.40;99.90
11656;DHT22;5884;43.618;1.438;2022-10-18T19:36:59;20.40;99.90
11656;DHT22;5884;43.618;1.438;2022-10-18T19:39:29;20.40;99.90
11656;DHT22;5884;43.618;1.438;2022-10-18T19:41:59;20.40;99.90
11656;DHT22;5884;43.618;1.438;2022-10-18T19:44:30;20.40;99.90
11656;DHT22;5884;43.618;1.438;2022-10-18T19:47:00;20.30;99.90
11656;DHT22;5884;43.618;1.438;2022-10-18T19:49:27;20.30;99.90
11656;DHT22;5884;43.618;1.438;2022-10-18T19:51:55;20.30;99.90
11656;DHT22;5884;43.618;1.438;2022-10-18T19:54:23;20.30;99.90
11656;DHT22;5884;43.618;1.438;2022-10-18T19:56:50;20.30;99.90
11656;DHT22;5884;43.618;1.438;2022-10-18T19:59:18;20.30;99.90
11656;DHT22;5884;43.618;1.438;2022-10-18T20:01:45;20.30;99.90
11656;DHT22;5884;43.618;1.438;2022-10-18T20:04:14;20.30;99.90
11656;DHT22;5884;43.618;1.438;2022-10-18T20:06:44;20.30;99.90
11656;DHT22;5884;43.618;1.438;2022-10-18T20:09:12;20.30;99.90
11656;DHT22;5884;43.618;1.438;2022-10-18T20:11:40;20.20;99.90
11656;DHT22;5884;43.618;1.438;2022-10-18T20:14:07;20.20;99.90
11656;DHT22;5884;43.618;1.438;2022-10-18T20:16:35;20.20;99.90
11656;DHT22;5884;43.618;1.438;2022-10-18T20:19:04;20.30;99.90
11656;DHT22;5884;43.618;1.438;2022-10-18T20:21:34;20.30;99.90
11656;DHT22;5884;43.618;1.438;2022-10-18T20:24:02;20.30;99.90
11656;DHT22;5884;43.618;1.438;2022-10-18T20:26:30;20.30;99.90
11656;DHT22;5884;43.618;1.438;2022-10-18T20:28:57;20.30;99.90
11656;DHT22;5884;43.618;1.438;2022-10-18T20:31:26;20.30;99.90
11656;DHT22;5884;43.618;1.438;2022-10-18T20:33:55;20.20;99.90
11656;DHT22;5884;43.618;1.438;2022-10-18T20:36:24;20.30;99.90
11656;DHT22;5884;43.618;1.438;2022-10-18T20:38:53;20.20;99.90
11656;DHT22;5884;43.618;1.438;2022-10-18T20:41:22;20.20;99.90
11656;DHT22;5884;43.618;1.438;2022-10-18T20:43:52;20.20;99.90
11656;DHT22;5884;43.618;1.438;2022-10-18T20:46:19;20.20;99.90
11656;DHT22;5884;43.618;1.438;2022-10-18T20:48:48;20.20;99.90
11656;DHT22;5884;43.618;1.438;2022-10-18T20:51:15;20.20;99.90
11656;DHT22;5884;43.618;1.438;2022-10-18T20:53:43;20.10;99.90
11656;DHT22;5884;43.618;1.438;2022-10-18T20:56:13;20.20;99.90
11656;DHT22;5884;43.618;1.438;2022-10-18T20:58:43;20.20;99.90
